CEC 2014 Haywood NORAM/Buff-Qualifier & Prologue | Zone4.ca



CEC 2014 Haywood NORAM/Buff-Qualifier & Prologue

Date: Jan 31, 2014
Official  Results
Location/Lieu: Nakkertok South Nordic Centre
Host Clubs Hôtes: Gatineau-Ottawa XC Clubs

Jury
TD / DT:  Shawn Sinclair 
ATD / DTA  Renée Thibeault 
Dir. Comp. Chief  Jim McCarthy 
CCC Dir. SFC  Dave Dyer 
Heure/Time: 10:00 am
Wind/Vent:  10km/hr Gusty Wind/Vent Dir: SW
Air Temp: -3 Snow/Neige T: -4
Weather/Météo: Sun/Cloud Snow/Neige: Groomed Powder

Junior B (F) 3 km. Free  Prologue  
PL Bib Name YOB Cat Rnk Div CCC# SFQ# FIS# Club Team Time Diff
1 378 Laura Leclair 1997 Junior B (F) 1997 1/27 QC 27396 16733 3105222 Chelsea Nordiq   0:07:07.31  
2 375 Delphine Duvernay Tardif 1996 Junior B (F) 1996 1/25 QC 25602 20919   Montériski   0:07:09.34 +2.03
3 380 Marie Corriveau 1997 Junior B (F) 1997 2/27 QC 25806 13637 3105203 Club Nordique MSA   0:07:17.55 +10.24
4 379 Gabrielle Sarthou 1997 Junior B (F) 1997 3/27 QC 24492 13533   Montériski   0:07:19.28 +11.97
5 377 Laurence Dumais 1997 Junior B (F) 1997 4/27 QC 25753 20239 3105213 Fondeurs-Laurentides QCST 0:07:20.88 +13.57
6 392 Soren Meeuwisse 1997 Junior B (F) 1997 5/27 ON 27404     Team Hardwood OST 0:07:22.48 +15.17
7 376 Isabella Howden 1996 Junior B (F) 1996 2/25 ON 27493   3105221 Team Hardwood   0:07:22.82 +15.51
8 384 Logan Hong 1996 Junior B (F) 1996 3/25 ON 23715     Georgian Bay   0:07:22.91 +15.60
9 388 Camille Hamm 1996 Junior B (F) 1996 4/25 ON 23768     Big Thunder Nordic   0:07:24.57 +17.26
10 399 Leanne Weller 1997 Junior B (F) 1997 6/27 QC 27378 13943   Chelsea Nordiq   0:07:24.70 +17.39
11 383 Lauren Turcot 1997 Junior B (F) 1997 7/27 AB 27067     Canmore Nordic AST 0:07:26.78 +19.47
12 397 Emily McIlroy 1996 Junior B (F) 1996 5/25 NF 25697     Avalon Nordic XCNL 0:07:27.97 +20.66
13 401 Alexandra Stukator 1997 Junior B (F) 1997 8/27 ON 30265     Highland Trailblazers   0:07:30.86 +23.55
14 381 Madison Fraser 1996 Junior B (F) 1996 6/25 ON 21418   3105231 North Bay Nordic   0:07:31.43 +24.12
15 390 Emmy Phillips 1997 Junior B (F) 1997 9/27 AB 27071     Canmore Nordic AST 0:07:32.18 +24.87
16 393 Erika Mihell 1997 Junior B (F) 1997 10/27 ON 28155     Soo Finnish Nordic OST 0:07:32.31 +25.00
17 398 Alyssa Stowe 1997 Junior B (F) 1997 11/27 ON 27371     Nakkertok OST 0:07:32.67 +25.36
18 386 Claire Grall-Johnson 1997 Junior B (F) 1997 12/27 ON 27379     Nakkertok   0:07:33.24 +25.93
19 382 Sarah Harvey 1997 Junior B (F) 1997 13/27 QC 27381 25507 3105226 C.N. Skibec   0:07:34.69 +27.38
20 395 Amandine Drew 1996 Junior B (F) 1996 7/25 ON 29282     Nakkertok   0:07:39.82 +32.51
21 389 Florence Dostie-Ménard 1997 Junior B (F) 1997 14/27 QC 28652 17543   Skinouk   0:07:45.44 +38.13
22 387 Katherine Denis 1996 Junior B (F) 1996 8/25 ON 25762     Temiskaming Nordic OST 0:07:47.50 +40.19
23 411 Fiona MacIsaac 1997 Junior B (F) 1997 15/27 MB 29470     Red River Nordic MBST 0:07:48.98 +41.67
24 385 Dafné Théroux Izquierdo 1996 Junior B (F) 1996 9/25 QC 25771 22601   Fondeurs-Laurentides   0:07:50.03 +42.72
25 406 Alana Hennessy 1996 Junior B (F) 1996 10/25 QC 27385 14081   Chelsea Nordiq   0:07:50.24 +42.93
26 400 Laura Inkila 1997 Junior B (F) 1997 16/27 ON 25805     Lappe Nordic   0:07:52.03 +44.72
27 402 Morgan Rogers 1997 Junior B (F) 1997 17/27 AB 27068     Canmore Nordic   0:07:53.10 +45.79
28 391 Audrey-Anne Dufresne 1997 Junior B (F) 1997 18/27 QC 27438 13163   Mauriski   0:07:54.81 +47.50
29 404 Shayna Herr 1996 Junior B (F) 1996 11/25 ON 25701     Georgian Nordic   0:07:59.56 +52.25
30 394 Gabrielle Petitclerc 1996 Junior B (F) 1996 12/25 QC 25605 15785   Club Nordique MSA   0:07:59.58 +52.27
31 420 Katie Lockhart 1996 Junior B (F) 1996 13/25 MB 27415     Kenora Nordic MBST 0:08:06.78 +59.47
32 405 Emily Jones 1996 Junior B (F) 1996 14/25 ON 28194     Arrowhead Nordic   0:08:07.26 +59.95
33 409 Anna Kroeker 1996 Junior B (F) 1996 15/25 MB 27511     Red River Nordic MBST 0:08:09.00 +1:01.69
34 407 Elora Adamson 1997 Junior B (F) 1997 19/27 MB 27507     Red River Nordic MBST 0:08:11.00 +1:03.69
35 396 Keira Niemi 1996 Junior B (F) 1996 16/25 ON 25728     Skinouk   0:08:17.50 +1:10.19
36 412 Jeanne Lavoie-Trudeau 1996 Junior B (F) 1996 17/25 QC 24484 11430   Mauriski   0:08:21.64 +1:14.33
37 417 Nicola Goldsmith 1997 Junior B (F) 1997 20/27 ON 29280     Nakkertok   0:08:21.80 +1:14.49
38 403 Marie-Claire Henry 1996 Junior B (F) 1996 18/25 ON 25704     Georgian Nordic   0:08:24.70 +1:17.39
39 408 Marianne St-Louis-Morneau 1996 Junior B (F) 1996 19/25 QC 25613 13087 3105223 C.N. Skibec   0:08:25.40 +1:18.09
40 410 Celeste Noble 1996 Junior B (F) 1996 20/25 ON 28195     Kawartha Nordic   0:08:31.50 +1:24.19
41 415 Krista Buckner 1996 Junior B (F) 1996 21/25 ON 23765     Soo Finnish Nordic   0:08:33.60 +1:26.29
42 425 Cambria Fuerstner 1997 Junior B (F) 1997 21/27 YT 30897     Whitehorse XC YTST 0:08:33.78 +1:26.47
43 413 Emily Beirnes 1997 Junior B (F) 1997 22/27 ON 28647     Georgian Nordic   0:08:35.72 +1:28.41
44 422 Lydia Harris 1997 Junior B (F) 1997 23/27 ON 30881     Kawartha Nordic   0:08:50.91 +1:43.60
45 416 Camille Ballick 1997 Junior B (F) 1997 24/27 QC 31852 25654   Fondeurs-Laurentides   0:08:55.02 +1:47.71
46 419 Andréanne Dumont 1996 Junior B (F) 1996 22/25 QC 26908 11563   Skinouk   0:09:06.65 +1:59.34
47 421 Sabrina Pouliot 1996 Junior B (F) 1996 23/25 QC 25770 16974   Fondeurs-Laurentides   0:09:16.51 +2:09.20
48 423 Megan Wurtele 1997 Junior B (F) 1997 25/27 ON 30272     Kawartha Nordic   0:09:20.21 +2:12.90
49 418 Andréa Fox 1996 Junior B (F) 1996 24/25 QC 25795 24172   Montériski E-Montpetit 0:09:21.03 +2:13.72
50 424 Marie-Pier Pelletier-Millette 1997 Junior B (F) 1997 26/27 QC 29301 17546   Skinouk   0:09:29.60 +2:22.29
51 426 Delphine Cyr 1996 Junior B (F) 1996 25/25 QC   27686   Skinouk   0:09:37.76 +2:30.45
52 427 Katie Luiker 1997 Junior B (F) 1997 27/27 NB       Wostawea NBST 0:10:15.48 +3:08.17
DNS 414 Roxanna Kemp 1997 Junior B (F) 1997 * ON 28185     Nakkertok   *** ***


Results are posted through an automated system by licenced clubs. For inquires about result corrections please contact the race organizer.

Copyright 2022 - Zone4 Systems zone4.ca       Privacy Policy     Delivery/Refund Policy     Terms of Service    Contact Zone4